Florence, Missouri
Current Conditions -  °F | °C
As of 7:53 AM on Monday 24 Nov 2014 (Local Time) from KDMO Reporting Station
Overcast Overcast  
Wind Chill: 27°   Ceiling: 3400
Heat Index: 35°   Visibility: 10mi
Dew Point: 25°   Wind: 12mph
Humidity: 67%   Direction: 260°W
Pressure: 29.65"   Gusts: NA
Location:  38.59°N, 92.98°W
Report Text: KDMO 241353Z AUTO 26010KT 10SM OVC034 02/M04 A2965 RMK AO2 SLP043 T00171039
Loading
Personal Weather Stations






























Interactive Weather Map New forecast layout! Learn more

10-Day Weather Forecast

Advertisements
Track Severe Weather on mobile